08:07
Airports
History
Links
Donate
Help keep this website running!
PayPal
Bitcoin
Information on this page is community maintained and may be outdated or inaccurate and is intended for reference only or PC simulator navigating!
Always use approved charts for navigating.
EDQM
Hof Plauen
Hof Plauen (EDQM)
Konradsreuth, Bayern, Germany (95176)
(C)
Lat/Lng:50° 17' 19.11" N / 11° 51' 14.63" E
50.288643 / 11.854065
Elevation:1960'ft 597mMSL
ID / ICAO:EDQM
Runways:1
Longest:(09-27) 1,480.6m 4,858ft Asphalt
Controlled:Yes
Distance To
Airport ID:
Airport Radio Frequencies
Tower: 125.8, 124.35
Approach: 118.97
Nearby VORs <50NM
Nearby NDBs
METARUpdated 03-28-17 07:50 GMT
Altimeter: 30.21
Visibility: 6.2 statute miles
Wind: 3 knots (180°)
Temp: 11°c 52°f
Humidity: %

METAR: EDQM 280750Z 18003KT 150V210 CAVOK 11/M00 Q1023

(Powered by phpweather)
Runway 09 / 27
Dimensions:1480.6 x 29.9m 4858' x 98'ft
Surface:Asphalt
Edge Lights:High intensity
Runway 09 [A]Runway 27 [B]
Heading:086°TH 266°TH
Lat:
Lng:
50° 17' 17.77"N
11° 50' 37.31"E
50° 17' 20.46"N
11° 51' 51.96"E
ALS:MALSALSF-I
TDZ:Yes, lighted
Google Map
Nearby Airports
(U) Kulmbach 20.5 NM
EDQK WSW 238°
(C) Bayreuth 23.0 NM
EDQD (WX) SSW 204°
(U) Rosenthal Field Ploessen 29.6 NM
EDQP S 185°
(U) Coburg Brandensteinsebene 38.0 NM
EDQC W 267°
(C) GRAFENWOHR AAF 40.9 NM
ETIC (WX) S 174°
(U) Gera Leumitz 42.7 NM
EDAJ NNE 16°
(U) Weiden 43.7 NM
EDQW SSE 164°
VFR Chart
Flight Planning at SkyVector.com